sensor_id;sensor_type;location;lat;lon;timestamp;temperature;humidity
1107;DHT22;540;49.448;8.612;2023-03-14T00:02:26;11.60;99.90
1107;DHT22;540;49.448;8.612;2023-03-14T00:04:54;11.70;99.90
1107;DHT22;540;49.448;8.612;2023-03-14T00:07:23;11.60;99.90
1107;DHT22;540;49.448;8.612;2023-03-14T00:09:51;11.70;99.90
1107;DHT22;540;49.448;8.612;2023-03-14T00:12:19;11.60;99.90
1107;DHT22;540;49.448;8.612;2023-03-14T00:14:47;11.80;99.90
1107;DHT22;540;49.448;8.612;2023-03-14T00:17:16;11.70;99.90
1107;DHT22;540;49.448;8.612;2023-03-14T00:19:44;11.70;99.90
1107;DHT22;540;49.448;8.612;2023-03-14T00:22:11;11.60;99.90
1107;DHT22;540;49.448;8.612;2023-03-14T00:24:39;11.60;99.90
1107;DHT22;540;49.448;8.612;2023-03-14T00:27:07;11.70;99.90
1107;DHT22;540;49.448;8.612;2023-03-14T00:29:35;11.70;99.90
1107;DHT22;540;49.448;8.612;2023-03-14T00:32:03;11.70;99.90
1107;DHT22;540;49.448;8.612;2023-03-14T00:34:33;11.80;99.90
1107;DHT22;540;49.448;8.612;2023-03-14T00:37:00;11.60;99.90
1107;DHT22;540;49.448;8.612;2023-03-14T00:39:28;11.30;99.90
1107;DHT22;540;49.448;8.612;2023-03-14T00:41:56;11.90;99.90
1107;DHT22;540;49.448;8.612;2023-03-14T00:44:24;11.90;99.90
1107;DHT22;540;49.448;8.612;2023-03-14T00:46:51;11.70;99.90
1107;DHT22;540;49.448;8.612;2023-03-14T00:49:20;11.80;99.90
1107;DHT22;540;49.448;8.612;2023-03-14T00:51:49;11.80;99.90
1107;DHT22;540;49.448;8.612;2023-03-14T00:54:17;11.80;99.90
1107;DHT22;540;49.448;8.612;2023-03-14T00:56:45;11.80;99.90
1107;DHT22;540;49.448;8.612;2023-03-14T00:59:13;11.70;99.90
1107;DHT22;540;49.448;8.612;2023-03-14T01:01:41;11.70;99.90
1107;DHT22;540;49.448;8.612;2023-03-14T01:04:09;11.50;99.90
1107;DHT22;540;49.448;8.612;2023-03-14T01:06:37;11.90;99.90
1107;DHT22;540;49.448;8.612;2023-03-14T01:09:07;12.00;99.90
1107;DHT22;540;49.448;8.612;2023-03-14T01:11:36;11.80;99.90
1107;DHT22;540;49.448;8.612;2023-03-14T01:14:04;11.70;99.90
1107;DHT22;540;49.448;8.612;2023-03-14T01:16:33;11.80;99.90
1107;DHT22;540;49.448;8.612;2023-03-14T01:19:01;11.60;99.90
1107;DHT22;540;49.448;8.612;2023-03-14T01:21:31;12.00;99.90
1107;DHT22;540;49.448;8.612;2023-03-14T01:24:00;11.80;99.90
1107;DHT22;540;49.448;8.612;2023-03-14T01:26:32;11.60;99.90
1107;DHT22;540;49.448;8.612;2023-03-14T01:29:01;11.70;99.90
1107;DHT22;540;49.448;8.612;2023-03-14T01:31:30;11.60;99.90
1107;DHT22;540;49.448;8.612;2023-03-14T01:33:58;11.70;99.90
1107;DHT22;540;49.448;8.612;2023-03-14T01:36:26;11.70;99.90
1107;DHT22;540;49.448;8.612;2023-03-14T01:38:56;11.70;99.90
1107;DHT22;540;49.448;8.612;2023-03-14T01:41:26;11.70;99.90
1107;DHT22;540;49.448;8.612;2023-03-14T01:43:55;11.80;99.90
1107;DHT22;540;49.448;8.612;2023-03-14T01:49:19;11.70;99.90
1107;DHT22;540;49.448;8.612;2023-03-14T01:51:52;11.80;99.90
1107;DHT22;540;49.448;8.612;2023-03-14T01:54:23;11.90;99.90
1107;DHT22;540;49.448;8.612;2023-03-14T01:56:56;11.90;99.90
1107;DHT22;540;49.448;8.612;2023-03-14T01:59:26;11.90;99.90
1107;DHT22;540;49.448;8.612;2023-03-14T02:01:55;11.80;99.90
1107;DHT22;540;49.448;8.612;2023-03-14T02:04:23;11.80;99.90
1107;DHT22;540;49.448;8.612;2023-03-14T02:06:59;11.70;99.90
1107;DHT22;540;49.448;8.612;2023-03-14T02:09:28;11.80;99.90
1107;DHT22;540;49.448;8.612;2023-03-14T02:11:56;12.00;99.90
1107;DHT22;540;49.448;8.612;2023-03-14T02:14:30;11.60;99.90
1107;DHT22;540;49.448;8.612;2023-03-14T02:16:59;11.70;99.90
1107;DHT22;540;49.448;8.612;2023-03-14T02:19:36;11.90;99.90
1107;DHT22;540;49.448;8.612;2023-03-14T02:22:12;11.70;99.90
1107;DHT22;540;49.448;8.612;2023-03-14T02:24:46;11.70;99.90
1107;DHT22;540;49.448;8.612;2023-03-14T02:27:18;11.70;99.90
1107;DHT22;540;49.448;8.612;2023-03-14T02:29:51;11.70;99.90
1107;DHT22;540;49.448;8.612;2023-03-14T02:32:20;11.10;99.90
1107;DHT22;540;49.448;8.612;2023-03-14T02:34:52;11.70;99.90
1107;DHT22;540;49.448;8.612;2023-03-14T02:37:23;11.60;99.90
1107;DHT22;540;49.448;8.612;2023-03-14T02:39:51;11.70;99.90
1107;DHT22;540;49.448;8.612;2023-03-14T02:42:21;11.60;99.90
1107;DHT22;540;49.448;8.612;2023-03-14T02:44:51;11.70;99.90
1107;DHT22;540;49.448;8.612;2023-03-14T02:47:26;11.60;99.90
1107;DHT22;540;49.448;8.612;2023-03-14T02:50:02;11.70;99.90
1107;DHT22;540;49.448;8.612;2023-03-14T02:52:31;11.80;99.90
1107;DHT22;540;49.448;8.612;2023-03-14T02:54:58;11.40;99.90
1107;DHT22;540;49.448;8.612;2023-03-14T02:57:27;11.50;99.90
1107;DHT22;540;49.448;8.612;2023-03-14T02:59:58;11.50;99.90
1107;DHT22;540;49.448;8.612;2023-03-14T03:02:26;11.20;99.90
1107;DHT22;540;49.448;8.612;2023-03-14T03:04:53;11.40;99.90
1107;DHT22;540;49.448;8.612;2023-03-14T03:07:21;11.50;99.90
1107;DHT22;540;49.448;8.612;2023-03-14T03:09:49;11.60;99.90
1107;DHT22;540;49.448;8.612;2023-03-14T03:12:17;11.40;99.90
1107;DHT22;540;49.448;8.612;2023-03-14T03:14:46;11.40;99.90
1107;DHT22;540;49.448;8.612;2023-03-14T03:17:13;11.60;99.90
1107;DHT22;540;49.448;8.612;2023-03-14T03:19:41;11.40;99.90
1107;DHT22;540;49.448;8.612;2023-03-14T03:22:09;11.40;99.90
1107;DHT22;540;49.448;8.612;2023-03-14T03:24:37;11.40;99.90
1107;DHT22;540;49.448;8.612;2023-03-14T03:27:04;11.60;99.90
1107;DHT22;540;49.448;8.612;2023-03-14T03:29:32;11.40;99.90
1107;DHT22;540;49.448;8.612;2023-03-14T03:32:01;11.70;99.90
1107;DHT22;540;49.448;8.612;2023-03-14T03:34:29;11.50;99.90
1107;DHT22;540;49.448;8.612;2023-03-14T03:36:57;11.60;99.90
1107;DHT22;540;49.448;8.612;2023-03-14T03:39:25;11.40;99.90
1107;DHT22;540;49.448;8.612;2023-03-14T03:41:53;11.50;99.90
1107;DHT22;540;49.448;8.612;2023-03-14T03:44:21;11.40;99.90
1107;DHT22;540;49.448;8.612;2023-03-14T03:46:48;11.40;99.90
1107;DHT22;540;49.448;8.612;2023-03-14T03:49:17;11.20;99.90
1107;DHT22;540;49.448;8.612;2023-03-14T03:51:45;11.40;99.90
1107;DHT22;540;49.448;8.612;2023-03-14T03:54:13;11.50;99.90
1107;DHT22;540;49.448;8.612;2023-03-14T03:56:41;11.40;99.90
1107;DHT22;540;49.448;8.612;2023-03-14T03:59:09;11.30;99.90
1107;DHT22;540;49.448;8.612;2023-03-14T04:01:37;11.40;99.90
1107;DHT22;540;49.448;8.612;2023-03-14T04:04:05;11.30;99.90
1107;DHT22;540;49.448;8.612;2023-03-14T04:06:34;11.50;99.90
1107;DHT22;540;49.448;8.612;2023-03-14T04:09:02;11.20;99.90
1107;DHT22;540;49.448;8.612;2023-03-14T04:11:30;11.40;99.90
1107;DHT22;540;49.448;8.612;2023-03-14T04:13:58;11.30;99.90
1107;DHT22;540;49.448;8.612;2023-03-14T04:16:26;11.10;99.90
1107;DHT22;540;49.448;8.612;2023-03-14T04:18:54;11.10;99.90
1107;DHT22;540;49.448;8.612;2023-03-14T04:21:21;11.10;99.90
1107;DHT22;540;49.448;8.612;2023-03-14T04:23:50;11.30;99.90
1107;DHT22;540;49.448;8.612;2023-03-14T04:26:18;11.50;99.90
1107;DHT22;540;49.448;8.612;2023-03-14T04:28:46;11.40;99.90
1107;DHT22;540;49.448;8.612;2023-03-14T04:31:16;11.30;99.90
1107;DHT22;540;49.448;8.612;2023-03-14T04:33:45;11.00;99.90
1107;DHT22;540;49.448;8.612;2023-03-14T04:36:13;11.40;99.90
1107;DHT22;540;49.448;8.612;2023-03-14T04:38:41;11.30;99.90
1107;DHT22;540;49.448;8.612;2023-03-14T04:41:10;11.30;99.90
1107;DHT22;540;49.448;8.612;2023-03-14T04:43:37;11.10;99.90
1107;DHT22;540;49.448;8.612;2023-03-14T04:46:06;11.10;99.90
1107;DHT22;540;49.448;8.612;2023-03-14T04:48:34;11.20;99.90
1107;DHT22;540;49.448;8.612;2023-03-14T04:51:02;11.30;99.90
1107;DHT22;540;49.448;8.612;2023-03-14T04:53:29;11.20;99.90
1107;DHT22;540;49.448;8.612;2023-03-14T04:55:58;11.00;99.90
1107;DHT22;540;49.448;8.612;2023-03-14T04:58:27;11.10;99.90
1107;DHT22;540;49.448;8.612;2023-03-14T05:00:55;11.20;99.90
1107;DHT22;540;49.448;8.612;2023-03-14T05:03:28;11.10;99.90
1107;DHT22;540;49.448;8.612;2023-03-14T05:05:56;11.20;99.90
1107;DHT22;540;49.448;8.612;2023-03-14T05:08:25;11.00;99.90
1107;DHT22;540;49.448;8.612;2023-03-14T05:10:53;11.10;99.90
1107;DHT22;540;49.448;8.612;2023-03-14T05:13:21;11.20;99.90
1107;DHT22;540;49.448;8.612;2023-03-14T05:15:50;11.10;99.90
1107;DHT22;540;49.448;8.612;2023-03-14T05:18:18;11.10;99.90
1107;DHT22;540;49.448;8.612;2023-03-14T05:20:46;11.10;99.90
1107;DHT22;540;49.448;8.612;2023-03-14T05:23:14;11.30;99.90
1107;DHT22;540;49.448;8.612;2023-03-14T05:25:43;11.20;99.90
1107;DHT22;540;49.448;8.612;2023-03-14T05:28:10;11.30;99.90
1107;DHT22;540;49.448;8.612;2023-03-14T05:30:38;11.50;99.90
1107;DHT22;540;49.448;8.612;2023-03-14T05:33:08;11.40;99.90
1107;DHT22;540;49.448;8.612;2023-03-14T05:35:35;11.10;99.90
1107;DHT22;540;49.448;8.612;2023-03-14T05:38:03;11.40;99.90
1107;DHT22;540;49.448;8.612;2023-03-14T05:40:31;11.40;99.90
1107;DHT22;540;49.448;8.612;2023-03-14T05:42:59;11.40;99.90
1107;DHT22;540;49.448;8.612;2023-03-14T05:45:27;11.50;99.90
1107;DHT22;540;49.448;8.612;2023-03-14T05:47:54;11.30;99.90
1107;DHT22;540;49.448;8.612;2023-03-14T05:50:23;11.30;99.90
1107;DHT22;540;49.448;8.612;2023-03-14T05:52:51;11.60;99.90
1107;DHT22;540;49.448;8.612;2023-03-14T05:55:19;11.40;99.90
1107;DHT22;540;49.448;8.612;2023-03-14T05:57:47;11.40;99.90
1107;DHT22;540;49.448;8.612;2023-03-14T06:00:15;11.60;99.90
1107;DHT22;540;49.448;8.612;2023-03-14T06:02:43;11.60;99.90
1107;DHT22;540;49.448;8.612;2023-03-14T06:05:12;11.70;99.90
1107;DHT22;540;49.448;8.612;2023-03-14T06:07:41;11.40;99.90
1107;DHT22;540;49.448;8.612;2023-03-14T06:10:09;11.50;99.90
1107;DHT22;540;49.448;8.612;2023-03-14T06:12:37;11.50;99.90
1107;DHT22;540;49.448;8.612;2023-03-14T06:15:06;11.50;99.90
1107;DHT22;540;49.448;8.612;2023-03-14T06:17:34;11.50;99.90
1107;DHT22;540;49.448;8.612;2023-03-14T06:20:02;11.50;99.90
1107;DHT22;540;49.448;8.612;2023-03-14T06:22:30;11.50;99.90
1107;DHT22;540;49.448;8.612;2023-03-14T06:24:59;11.50;99.90
1107;DHT22;540;49.448;8.612;2023-03-14T06:27:27;11.60;99.90
1107;DHT22;540;49.448;8.612;2023-03-14T06:29:55;11.70;99.90
1107;DHT22;540;49.448;8.612;2023-03-14T06:32:24;11.70;99.90
1107;DHT22;540;49.448;8.612;2023-03-14T06:34:52;11.70;99.90
1107;DHT22;540;49.448;8.612;2023-03-14T06:37:20;11.50;99.90
1107;DHT22;540;49.448;8.612;2023-03-14T06:39:47;11.60;99.90
1107;DHT22;540;49.448;8.612;2023-03-14T06:42:17;11.70;99.90
1107;DHT22;540;49.448;8.612;2023-03-14T06:44:44;11.60;99.90
1107;DHT22;540;49.448;8.612;2023-03-14T06:47:13;11.80;99.90
1107;DHT22;540;49.448;8.612;2023-03-14T06:49:41;11.70;99.90
1107;DHT22;540;49.448;8.612;2023-03-14T06:52:09;11.80;99.90
1107;DHT22;540;49.448;8.612;2023-03-14T06:54:36;11.70;99.90
1107;DHT22;540;49.448;8.612;2023-03-14T06:57:04;12.00;99.90
1107;DHT22;540;49.448;8.612;2023-03-14T06:59:33;11.70;99.90
1107;DHT22;540;49.448;8.612;2023-03-14T07:02:01;11.90;99.90
1107;DHT22;540;49.448;8.612;2023-03-14T07:04:29;11.90;99.30
1107;DHT22;540;49.448;8.612;2023-03-14T07:06:57;11.50;99.60
1107;DHT22;540;49.448;8.612;2023-03-14T07:09:24;11.60;99.70
1107;DHT22;540;49.448;8.612;2023-03-14T07:11:52;11.70;99.60
1107;DHT22;540;49.448;8.612;2023-03-14T07:14:20;11.70;99.30
1107;DHT22;540;49.448;8.612;2023-03-14T07:16:49;11.80;99.50
1107;DHT22;540;49.448;8.612;2023-03-14T07:19:17;11.80;99.90
1107;DHT22;540;49.448;8.612;2023-03-14T07:21:45;11.80;99.90
1107;DHT22;540;49.448;8.612;2023-03-14T07:24:12;11.70;99.90
1107;DHT22;540;49.448;8.612;2023-03-14T07:26:40;11.90;99.90
1107;DHT22;540;49.448;8.612;2023-03-14T07:29:08;11.80;99.90
1107;DHT22;540;49.448;8.612;2023-03-14T07:31:36;11.90;99.40
1107;DHT22;540;49.448;8.612;2023-03-14T07:34:05;11.90;99.60
1107;DHT22;540;49.448;8.612;2023-03-14T07:36:33;11.90;99.40
1107;DHT22;540;49.448;8.612;2023-03-14T07:39:01;11.90;99.10
1107;DHT22;540;49.448;8.612;2023-03-14T07:41:29;11.90;98.60
1107;DHT22;540;49.448;8.612;2023-03-14T07:43:56;12.00;99.20
1107;DHT22;540;49.448;8.612;2023-03-14T07:46:24;12.10;99.40
1107;DHT22;540;49.448;8.612;2023-03-14T07:48:52;12.10;99.90
1107;DHT22;540;49.448;8.612;2023-03-14T07:51:21;11.90;99.90
1107;DHT22;540;49.448;8.612;2023-03-14T07:53:49;12.10;99.90
1107;DHT22;540;49.448;8.612;2023-03-14T07:56:17;12.10;99.90
1107;DHT22;540;49.448;8.612;2023-03-14T07:58:44;12.20;99.90
1107;DHT22;540;49.448;8.612;2023-03-14T08:01:13;12.30;99.80
1107;DHT22;540;49.448;8.612;2023-03-14T08:03:40;12.20;99.60
1107;DHT22;540;49.448;8.612;2023-03-14T08:06:08;12.20;99.60
1107;DHT22;540;49.448;8.612;2023-03-14T08:08:37;12.10;99.70
1107;DHT22;540;49.448;8.612;2023-03-14T08:11:06;12.30;99.90
1107;DHT22;540;49.448;8.612;2023-03-14T08:13:35;12.10;99.70
1107;DHT22;540;49.448;8.612;2023-03-14T08:16:04;12.30;99.90
1107;DHT22;540;49.448;8.612;2023-03-14T08:18:32;11.80;99.30
1107;DHT22;540;49.448;8.612;2023-03-14T08:21:00;12.40;99.60
1107;DHT22;540;49.448;8.612;2023-03-14T08:23:28;12.70;99.30
1107;DHT22;540;49.448;8.612;2023-03-14T08:25:57;14.00;95.10
1107;DHT22;540;49.448;8.612;2023-03-14T08:28:25;14.80;92.30
1107;DHT22;540;49.448;8.612;2023-03-14T08:30:57;14.40;91.70
1107;DHT22;540;49.448;8.612;2023-03-14T08:33:25;14.10;92.20
1107;DHT22;540;49.448;8.612;2023-03-14T08:35:55;14.10;92.60
1107;DHT22;540;49.448;8.612;2023-03-14T08:38:23;13.50;92.60
1107;DHT22;540;49.448;8.612;2023-03-14T08:40:57;14.00;92.70
1107;DHT22;540;49.448;8.612;2023-03-14T08:43:25;13.80;92.60
1107;DHT22;540;49.448;8.612;2023-03-14T08:45:53;13.20;92.80
1107;DHT22;540;49.448;8.612;2023-03-14T08:48:21;13.30;93.30
1107;DHT22;540;49.448;8.612;2023-03-14T08:50:48;13.20;93.50
1107;DHT22;540;49.448;8.612;2023-03-14T08:53:16;13.10;92.70
1107;DHT22;540;49.448;8.612;2023-03-14T08:55:45;13.30;93.10
1107;DHT22;540;49.448;8.612;2023-03-14T08:58:14;13.20;93.20
1107;DHT22;540;49.448;8.612;2023-03-14T09:00:42;13.20;94.00
1107;DHT22;540;49.448;8.612;2023-03-14T09:03:12;13.10;94.10
1107;DHT22;540;49.448;8.612;2023-03-14T09:05:42;13.10;94.10
1107;DHT22;540;49.448;8.612;2023-03-14T09:08:13;13.20;94.70
1107;DHT22;540;49.448;8.612;2023-03-14T09:10:43;13.30;94.80
1107;DHT22;540;49.448;8.612;2023-03-14T09:13:14;13.00;95.00
1107;DHT22;540;49.448;8.612;2023-03-14T09:15:44;12.90;94.60
1107;DHT22;540;49.448;8.612;2023-03-14T09:18:13;13.20;94.50
1107;DHT22;540;49.448;8.612;2023-03-14T09:20:43;13.60;93.70
1107;DHT22;540;49.448;8.612;2023-03-14T09:23:13;13.90;93.30
1107;DHT22;540;49.448;8.612;2023-03-14T09:25:43;13.50;94.00
1107;DHT22;540;49.448;8.612;2023-03-14T09:28:14;13.60;95.00
1107;DHT22;540;49.448;8.612;2023-03-14T09:30:43;13.20;95.00
1107;DHT22;540;49.448;8.612;2023-03-14T09:33:13;13.10;95.60
1107;DHT22;540;49.448;8.612;2023-03-14T09:35:42;13.30;95.70
1107;DHT22;540;49.448;8.612;2023-03-14T09:38:12;13.60;95.10
1107;DHT22;540;49.448;8.612;2023-03-14T09:40:42;13.80;94.80
1107;DHT22;540;49.448;8.612;2023-03-14T09:43:14;13.80;94.50
1107;DHT22;540;49.448;8.612;2023-03-14T09:45:46;13.90;94.90
1107;DHT22;540;49.448;8.612;2023-03-14T09:48:20;14.00;93.00
1107;DHT22;540;49.448;8.612;2023-03-14T09:50:53;14.40;93.00
1107;DHT22;540;49.448;8.612;2023-03-14T09:53:26;14.30;92.20
1107;DHT22;540;49.448;8.612;2023-03-14T09:55:58;14.20;92.50
1107;DHT22;540;49.448;8.612;2023-03-14T09:58:29;14.10;93.30
1107;DHT22;540;49.448;8.612;2023-03-14T10:00:58;14.10;93.20
1107;DHT22;540;49.448;8.612;2023-03-14T10:03:32;14.20;92.60
1107;DHT22;540;49.448;8.612;2023-03-14T10:06:01;13.80;93.50
1107;DHT22;540;49.448;8.612;2023-03-14T10:08:30;13.70;94.10
1107;DHT22;540;49.448;8.612;2023-03-14T10:10:58;13.80;94.60
1107;DHT22;540;49.448;8.612;2023-03-14T10:13:28;13.90;94.80
1107;DHT22;540;49.448;8.612;2023-03-14T10:16:01;12.80;95.30
1107;DHT22;540;49.448;8.612;2023-03-14T10:18:31;13.30;96.80
1107;DHT22;540;49.448;8.612;2023-03-14T10:21:05;13.30;97.60
1107;DHT22;540;49.448;8.612;2023-03-14T10:23:34;13.10;97.70
1107;DHT22;540;49.448;8.612;2023-03-14T10:26:07;13.30;97.90
1107;DHT22;540;49.448;8.612;2023-03-14T10:28:42;13.30;97.30
1107;DHT22;540;49.448;8.612;2023-03-14T10:31:11;13.40;97.80
1107;DHT22;540;49.448;8.612;2023-03-14T10:33:39;13.30;98.10
1107;DHT22;540;49.448;8.612;2023-03-14T10:36:17;13.30;98.40
1107;DHT22;540;49.448;8.612;2023-03-14T10:38:46;13.00;99.10
1107;DHT22;540;49.448;8.612;2023-03-14T10:41:17;12.70;99.10
1107;DHT22;540;49.448;8.612;2023-03-14T10:43:50;12.80;99.90
1107;DHT22;540;49.448;8.612;2023-03-14T10:46:19;12.90;99.70
1107;DHT22;540;49.448;8.612;2023-03-14T10:48:47;13.10;99.90
1107;DHT22;540;49.448;8.612;2023-03-14T10:51:19;12.70;99.90
1107;DHT22;540;49.448;8.612;2023-03-14T10:53:57;12.80;99.90
1107;DHT22;540;49.448;8.612;2023-03-14T10:56:26;12.80;99.90
1107;DHT22;540;49.448;8.612;2023-03-14T10:58:57;12.60;99.90
1107;DHT22;540;49.448;8.612;2023-03-14T11:01:36;12.40;99.90
1107;DHT22;540;49.448;8.612;2023-03-14T11:04:15;12.30;99.90
1107;DHT22;540;49.448;8.612;2023-03-14T11:06:52;12.10;99.90
1107;DHT22;540;49.448;8.612;2023-03-14T11:09:27;12.30;99.90
1107;DHT22;540;49.448;8.612;2023-03-14T11:12:02;12.20;99.90
1107;DHT22;540;49.448;8.612;2023-03-14T11:14:37;12.00;99.90
1107;DHT22;540;49.448;8.612;2023-03-14T11:17:11;12.00;99.90
1107;DHT22;540;49.448;8.612;2023-03-14T11:19:54;11.80;99.90
1107;DHT22;540;49.448;8.612;2023-03-14T11:22:29;12.00;99.90
1107;DHT22;540;49.448;8.612;2023-03-14T11:25:10;12.00;99.90
1107;DHT22;540;49.448;8.612;2023-03-14T11:27:44;12.00;99.90
1107;DHT22;540;49.448;8.612;2023-03-14T11:30:18;12.10;99.90
1107;DHT22;540;49.448;8.612;2023-03-14T11:32:52;11.80;99.90
1107;DHT22;540;49.448;8.612;2023-03-14T11:35:26;11.80;99.90
1107;DHT22;540;49.448;8.612;2023-03-14T11:38:05;11.90;99.90
1107;DHT22;540;49.448;8.612;2023-03-14T11:40:38;11.80;99.90
1107;DHT22;540;49.448;8.612;2023-03-14T11:43:12;11.90;99.90
1107;DHT22;540;49.448;8.612;2023-03-14T11:45:43;11.70;99.90
1107;DHT22;540;49.448;8.612;2023-03-14T11:48:20;11.90;99.90
1107;DHT22;540;49.448;8.612;2023-03-14T11:50:52;11.70;99.90
1107;DHT22;540;49.448;8.612;2023-03-14T11:53:34;11.90;99.90
1107;DHT22;540;49.448;8.612;2023-03-14T11:56:06;11.80;99.90
1107;DHT22;540;49.448;8.612;2023-03-14T11:58:43;12.00;99.90
1107;DHT22;540;49.448;8.612;2023-03-14T12:01:15;11.70;99.90
1107;DHT22;540;49.448;8.612;2023-03-14T12:03:52;11.70;99.90
1107;DHT22;540;49.448;8.612;2023-03-14T12:06:25;12.00;99.90
1107;DHT22;540;49.448;8.612;2023-03-14T12:08:56;12.00;99.90
1107;DHT22;540;49.448;8.612;2023-03-14T12:11:32;11.90;99.90
1107;DHT22;540;49.448;8.612;2023-03-14T12:14:01;12.00;99.20
1107;DHT22;540;49.448;8.612;2023-03-14T12:16:35;12.10;98.70
1107;DHT22;540;49.448;8.612;2023-03-14T12:19:29;11.90;98.10
1107;DHT22;540;49.448;8.612;2023-03-14T12:22:01;12.00;98.70
1107;DHT22;540;49.448;8.612;2023-03-14T12:24:35;11.80;98.80
1107;DHT22;540;49.448;8.612;2023-03-14T12:27:05;11.50;97.90
1107;DHT22;540;49.448;8.612;2023-03-14T12:29:57;11.70;98.10
1107;DHT22;540;49.448;8.612;2023-03-14T12:32:31;11.70;98.40
1107;DHT22;540;49.448;8.612;2023-03-14T12:35:07;11.40;98.10
1107;DHT22;540;49.448;8.612;2023-03-14T12:37:56;11.30;98.40
1107;DHT22;540;49.448;8.612;2023-03-14T12:40:30;11.30;97.20
1107;DHT22;540;49.448;8.612;2023-03-14T12:43:00;11.50;96.00
1107;DHT22;540;49.448;8.612;2023-03-14T12:45:30;11.70;95.60
1107;DHT22;540;49.448;8.612;2023-03-14T12:48:08;11.80;94.40
1107;DHT22;540;49.448;8.612;2023-03-14T12:50:44;11.40;94.30
1107;DHT22;540;49.448;8.612;2023-03-14T12:53:52;11.30;95.00
1107;DHT22;540;49.448;8.612;2023-03-14T12:56:32;11.20;97.60
1107;DHT22;540;49.448;8.612;2023-03-14T12:59:21;11.30;99.20
1107;DHT22;540;49.448;8.612;2023-03-14T13:01:55;11.00;99.90
1107;DHT22;540;49.448;8.612;2023-03-14T13:04:30;10.70;99.90
1107;DHT22;540;49.448;8.612;2023-03-14T13:07:11;10.70;99.90
1107;DHT22;540;49.448;8.612;2023-03-14T13:09:59;10.60;99.90
1107;DHT22;540;49.448;8.612;2023-03-14T13:12:31;10.60;99.90
1107;DHT22;540;49.448;8.612;2023-03-14T13:15:11;10.70;99.90
1107;DHT22;540;49.448;8.612;2023-03-14T13:17:41;10.80;99.90
1107;DHT22;540;49.448;8.612;2023-03-14T13:20:14;11.10;98.40
1107;DHT22;540;49.448;8.612;2023-03-14T13:22:46;11.00;95.70
1107;DHT22;540;49.448;8.612;2023-03-14T13:25:15;11.70;93.40
1107;DHT22;540;49.448;8.612;2023-03-14T13:27:44;11.70;90.60
1107;DHT22;540;49.448;8.612;2023-03-14T13:30:16;11.90;88.20
1107;DHT22;540;49.448;8.612;2023-03-14T13:32:46;11.90;87.50
1107;DHT22;540;49.448;8.612;2023-03-14T13:35:18;11.90;85.40
1107;DHT22;540;49.448;8.612;2023-03-14T13:37:46;12.10;85.40
1107;DHT22;540;49.448;8.612;2023-03-14T13:40:26;12.00;81.60
1107;DHT22;540;49.448;8.612;2023-03-14T13:43:02;11.90;80.30
1107;DHT22;540;49.448;8.612;2023-03-14T13:45:37;12.50;80.60
1107;DHT22;540;49.448;8.612;2023-03-14T13:48:09;12.20;78.30
1107;DHT22;540;49.448;8.612;2023-03-14T13:50:39;12.00;76.80
1107;DHT22;540;49.448;8.612;2023-03-14T13:53:11;12.50;74.90
1107;DHT22;540;49.448;8.612;2023-03-14T13:55:39;12.40;73.30
1107;DHT22;540;49.448;8.612;2023-03-14T13:58:18;12.00;70.80
1107;DHT22;540;49.448;8.612;2023-03-14T14:00:58;12.00;72.10
1107;DHT22;540;49.448;8.612;2023-03-14T14:03:27;11.70;69.10
1107;DHT22;540;49.448;8.612;2023-03-14T14:05:57;11.60;65.70
1107;DHT22;540;49.448;8.612;2023-03-14T14:08:26;11.50;66.40
1107;DHT22;540;49.448;8.612;2023-03-14T14:10:59;11.60;65.70
1107;DHT22;540;49.448;8.612;2023-03-14T14:13:33;11.70;66.00
1107;DHT22;540;49.448;8.612;2023-03-14T14:16:03;11.80;65.90
1107;DHT22;540;49.448;8.612;2023-03-14T14:18:32;11.80;65.70
1107;DHT22;540;49.448;8.612;2023-03-14T14:21:02;11.70;65.60
1107;DHT22;540;49.448;8.612;2023-03-14T14:23:30;11.70;62.20
1107;DHT22;540;49.448;8.612;2023-03-14T14:25:59;11.90;60.70
1107;DHT22;540;49.448;8.612;2023-03-14T14:28:28;12.10;59.60
1107;DHT22;540;49.448;8.612;2023-03-14T14:31:06;12.40;59.30
1107;DHT22;540;49.448;8.612;2023-03-14T14:33:44;12.80;58.10
1107;DHT22;540;49.448;8.612;2023-03-14T14:36:20;12.90;58.00
1107;DHT22;540;49.448;8.612;2023-03-14T14:38:50;12.60;56.20
1107;DHT22;540;49.448;8.612;2023-03-14T14:41:19;12.60;56.60
1107;DHT22;540;49.448;8.612;2023-03-14T14:43:47;12.40;56.50
1107;DHT22;540;49.448;8.612;2023-03-14T14:46:18;12.40;57.50
1107;DHT22;540;49.448;8.612;2023-03-14T14:48:47;12.60;57.30
1107;DHT22;540;49.448;8.612;2023-03-14T14:51:30;12.40;56.10
1107;DHT22;540;49.448;8.612;2023-03-14T14:54:04;12.20;56.10
1107;DHT22;540;49.448;8.612;2023-03-14T14:56:37;12.00;54.90
1107;DHT22;540;49.448;8.612;2023-03-14T14:59:07;12.20;54.70
1107;DHT22;540;49.448;8.612;2023-03-14T15:01:46;12.00;55.20
1107;DHT22;540;49.448;8.612;2023-03-14T15:04:16;11.80;54.30
1107;DHT22;540;49.448;8.612;2023-03-14T15:06:47;11.70;53.60
1107;DHT22;540;49.448;8.612;2023-03-14T15:09:16;11.60;54.00
1107;DHT22;540;49.448;8.612;2023-03-14T15:11:44;12.10;54.00
1107;DHT22;540;49.448;8.612;2023-03-14T15:14:12;11.80;53.50
1107;DHT22;540;49.448;8.612;2023-03-14T15:16:40;11.80;53.80
1107;DHT22;540;49.448;8.612;2023-03-14T15:19:19;11.80;53.10
1107;DHT22;540;49.448;8.612;2023-03-14T15:21:52;11.80;53.80
1107;DHT22;540;49.448;8.612;2023-03-14T15:24:20;11.70;52.40
1107;DHT22;540;49.448;8.612;2023-03-14T15:26:48;11.50;52.50
1107;DHT22;540;49.448;8.612;2023-03-14T15:29:17;11.90;52.40
1107;DHT22;540;49.448;8.612;2023-03-14T15:31:45;11.80;51.80
1107;DHT22;540;49.448;8.612;2023-03-14T15:34:13;11.70;51.90
1107;DHT22;540;49.448;8.612;2023-03-14T15:36:41;11.80;51.70
1107;DHT22;540;49.448;8.612;2023-03-14T15:39:11;11.80;51.60
1107;DHT22;540;49.448;8.612;2023-03-14T15:41:39;11.80;52.00
1107;DHT22;540;49.448;8.612;2023-03-14T15:44:06;11.70;52.40
1107;DHT22;540;49.448;8.612;2023-03-14T15:46:34;11.90;51.90
1107;DHT22;540;49.448;8.612;2023-03-14T15:49:02;11.90;51.50
1107;DHT22;540;49.448;8.612;2023-03-14T15:51:30;12.20;51.60
1107;DHT22;540;49.448;8.612;2023-03-14T15:53:58;12.00;51.40
1107;DHT22;540;49.448;8.612;2023-03-14T15:56:27;12.10;50.80
1107;DHT22;540;49.448;8.612;2023-03-14T15:58:58;12.10;50.90
1107;DHT22;540;49.448;8.612;2023-03-14T16:01:26;12.20;50.50
1107;DHT22;540;49.448;8.612;2023-03-14T16:03:54;12.40;50.90
1107;DHT22;540;49.448;8.612;2023-03-14T16:06:22;12.40;51.10
1107;DHT22;540;49.448;8.612;2023-03-14T16:08:50;12.40;51.30
1107;DHT22;540;49.448;8.612;2023-03-14T16:11:18;12.20;51.40
1107;DHT22;540;49.448;8.612;2023-03-14T16:13:49;12.40;51.70
1107;DHT22;540;49.448;8.612;2023-03-14T16:16:17;12.10;51.60
1107;DHT22;540;49.448;8.612;2023-03-14T16:18:45;12.00;52.20
1107;DHT22;540;49.448;8.612;2023-03-14T16:21:15;11.90;52.50
1107;DHT22;540;49.448;8.612;2023-03-14T16:23:44;11.90;52.70
1107;DHT22;540;49.448;8.612;2023-03-14T16:26:13;11.70;52.50
1107;DHT22;540;49.448;8.612;2023-03-14T16:28:42;10.90;52.70
1107;DHT22;540;49.448;8.612;2023-03-14T16:31:13;11.50;54.00
1107;DHT22;540;49.448;8.612;2023-03-14T16:33:42;11.30;54.20
1107;DHT22;540;49.448;8.612;2023-03-14T16:36:11;11.10;54.60
1107;DHT22;540;49.448;8.612;2023-03-14T16:38:41;11.00;54.90
1107;DHT22;540;49.448;8.612;2023-03-14T16:41:11;10.80;55.40